메인 페이지
METAR-TAF:

METAR-TAF

공항 :

몬트리올 피에르 엘리오트 트뤼도 국제공항

몬트리올 트뤼도, 퀘벡, 캐나다

위도: 45-28N, 경도: 073-45W, 고도: 31m

현재 날씨관측

예보는 30분 전, 07:00시(UTC)에 발표되었습니다.
북북동4kt
온도 4°C
습도 100%
기압 1009 hPa
시정: 24.1km
고도 25000ft 상공 구름 많음

METAR: CYUL 210700Z 03004KT 15SM BKN250 04/04 A2980 RMK CI7 SLP094

시각: 03:30 (07:30 UTC)

예보

예보는 1 시간 52분 전, 05:38시(UTC)에 발표되었습니다.
예보 대상 시간: 21일 06시부터 22일 06시까지 (UTC)
북북동7kt
시정: 10km
고도 4000ft 상공 구름 조금
고도 24000ft 상공 구름 많음
확률 30%
21일 06시부터 21일 08시까지 (UTC)
시정: 0.8km
고도 200ft 상공
안개
21일 0800시부터 (UTC)
8kt
시정: 10km
고도 4000ft 상공 구름 조금
고도 24000ft 상공 구름 많음
전환 중
21일 13시부터 21일 15시까지 (UTC)
남서10kt
21일 1800시부터 (UTC)
서남서12kt
시정: 10km
고도 3000ft 상공 구름 보통
전환 중
21일 21시부터 21일 23시까지 (UTC)
북서8kt
전환 중
22일 01시부터 22일 03시까지 (UTC)
8kt

TAF: CYUL 210538Z 2106/2206 03007KT P6SM FEW040 BKN240 PROB30 2106/2108 1/2SM FG VV002 FM210800 17008KT P6SM FEW040 BKN240 BECMG 2113/2115 22010KT FM211800 24012KT P6SM SCT030 BECMG 2121/2123 32008KT BECMG 2201/2203 36008KT RMK NXT FCST BY 210900Z

4,000개 이상의 공항 관측 자료 및 예보 (METAR 및 TAF 보고).

지도상에서 검색 가능한 기상관측소가 노란 점과 빨간 점으로 표시되어 있습니다.

기상관측소 명을 보려면 표시 위로 마우스를 이동하세요.

날씨 관측과 예보를 보려면 클릭하세요.

지도 변경 : 확대하려면 엑스 표시가 있는 녹색 버튼, 축소하려면 빼기 표시가 있는 녹색 버튼, 다음 페이지의 지도를 보려면 녹색 화살표를 클릭하세요.


METAR-TAF: